createdAt,value
2019-05-17T00:02:17.655Z,101200.47
2019-05-17T00:04:46.996Z,101197.51
2019-05-17T00:07:16.766Z,101194.34
2019-05-17T00:09:47.703Z,101186.56
2019-05-17T00:12:16.596Z,101181.94
2019-05-17T00:14:47.141Z,101180.95
2019-05-17T00:17:17.332Z,101173.73
2019-05-17T00:19:46.485Z,101166.68
2019-05-17T00:22:16.735Z,101170.02
2019-05-17T00:24:47.546Z,101165.55
2019-05-17T00:27:17.263Z,101159.88
2019-05-17T00:29:46.499Z,101157.55
2019-05-17T00:32:17.106Z,101156.50
2019-05-17T00:34:47.004Z,101154.16
2019-05-17T00:37:17.430Z,101147.69
2019-05-17T00:39:47.180Z,101147.35
2019-05-17T00:42:17.038Z,101144.02
2019-05-17T00:44:47.425Z,101142.67
2019-05-17T00:47:17.110Z,101140.19
2019-05-17T00:49:46.499Z,101136.28
2019-05-17T00:52:16.723Z,101139.22
2019-05-17T00:54:46.965Z,101135.66
2019-05-17T00:57:16.586Z,101124.75
2019-05-17T00:59:47.371Z,101127.48
2019-05-17T01:02:16.361Z,101131.53
2019-05-17T01:04:47.411Z,101126.59
2019-05-17T01:07:17.547Z,101122.79
2019-05-17T01:09:47.250Z,101123.26
2019-05-17T01:12:16.457Z,101118.63
2019-05-17T01:14:46.655Z,101119.93
2019-05-17T01:17:16.564Z,101116.31
2019-05-17T01:19:47.043Z,101111.52
2019-05-17T01:22:16.881Z,101110.75
2019-05-17T01:24:46.289Z,101110.10
2019-05-17T01:27:17.058Z,101107.24
2019-05-17T01:29:46.576Z,101105.61
2019-05-17T01:32:17.276Z,101103.30
2019-05-17T01:34:46.939Z,101100.20
2019-05-17T01:37:17.218Z,101093.58
2019-05-17T01:39:46.827Z,101095.22
2019-05-17T01:42:17.187Z,101087.38
2019-05-17T01:44:47.251Z,101090.34
2019-05-17T01:47:16.651Z,101085.61
2019-05-17T01:49:46.991Z,101089.05
2019-05-17T01:52:16.795Z,101086.45
2019-05-17T01:54:46.990Z,101086.23
2019-05-17T01:57:16.875Z,101083.37
2019-05-17T01:59:46.722Z,101077.19
2019-05-17T02:02:22.883Z,101073.48
2019-05-17T02:04:52.407Z,101071.78
2019-05-17T02:07:20.887Z,101072.44
2019-05-17T02:09:49.862Z,101069.83
2019-05-17T02:12:18.366Z,101066.56
2019-05-17T02:14:47.135Z,101064.43
2019-05-17T02:17:17.431Z,101070.30
2019-05-17T02:19:46.537Z,101063.78
2019-05-17T02:22:16.737Z,101060.53
2019-05-17T02:24:46.458Z,101057.08
2019-05-17T02:27:15.081Z,101058.59
2019-05-17T02:29:43.555Z,101056.55
2019-05-17T02:32:12.866Z,101057.55
2019-05-17T02:34:42.975Z,101058.75
2019-05-17T02:37:13.605Z,101054.91
2019-05-17T02:39:57.126Z,101051.02
2019-05-17T02:42:13.849Z,101052.80
2019-05-17T02:44:43.766Z,101050.75
2019-05-17T02:47:13.345Z,101053.94
2019-05-17T02:49:42.494Z,101049.09
2019-05-17T02:52:12.446Z,101047.80
2019-05-17T02:54:43.724Z,101047.95
2019-05-17T02:57:14.273Z,101052.57
2019-05-17T02:59:43.267Z,101049.66
2019-05-17T03:02:12.662Z,101051.80
2019-05-17T03:04:43.307Z,101049.00
2019-05-17T03:07:13.556Z,101046.47
2019-05-17T03:09:43.174Z,101049.16
2019-05-17T03:12:12.907Z,101048.67
2019-05-17T03:14:43.293Z,101052.40
2019-05-17T03:17:14.084Z,101048.08
2019-05-17T03:19:43.570Z,101042.66
2019-05-17T03:22:13.178Z,101043.75
2019-05-17T03:24:43.878Z,101040.36
2019-05-17T03:27:13.465Z,101044.45
2019-05-17T03:29:42.587Z,101038.81
2019-05-17T03:32:16.771Z,101040.05
2019-05-17T03:34:44.914Z,101040.73
2019-05-17T03:37:16.131Z,101035.18
2019-05-17T03:39:42.740Z,101033.06
2019-05-17T03:42:13.216Z,101032.66
2019-05-17T03:44:43.797Z,101028.02
2019-05-17T03:47:13.111Z,101031.80
2019-05-17T03:49:43.704Z,101028.79
2019-05-17T03:52:13.620Z,101026.60
2019-05-17T03:54:43.050Z,101025.16
2019-05-17T03:57:13.414Z,101024.56
2019-05-17T03:59:43.102Z,101021.64
2019-05-17T04:02:12.440Z,101026.50
2019-05-17T04:04:42.933Z,101021.55
2019-05-17T04:07:12.715Z,101020.00
2019-05-17T04:09:43.731Z,101020.31
2019-05-17T04:12:13.582Z,101018.89
2019-05-17T04:14:42.835Z,101025.12
2019-05-17T04:17:13.075Z,101018.57
2019-05-17T04:19:42.706Z,101010.88
2019-05-17T04:22:13.863Z,101020.44
2019-05-17T04:24:43.823Z,101013.27
2019-05-17T04:27:13.612Z,101015.56
2019-05-17T04:29:42.549Z,101012.73
2019-05-17T04:32:13.041Z,101013.92
2019-05-17T04:34:43.665Z,101016.35
2019-05-17T04:37:13.064Z,101004.82
2019-05-17T04:39:43.262Z,100998.01
2019-05-17T04:42:13.589Z,101010.02
2019-05-17T04:44:43.150Z,101002.09
2019-05-17T04:47:13.457Z,100998.66
2019-05-17T04:55:26.477Z,101004.13
2019-05-17T04:58:15.517Z,101000.88
2019-05-17T05:11:32.586Z,101012.12
2019-05-17T05:14:27.992Z,101015.05
2019-05-17T05:16:56.702Z,101017.62
2019-05-17T05:19:52.844Z,101012.73
2019-05-17T05:28:52.876Z,101006.17
2019-05-17T05:34:03.173Z,101014.38
2019-05-17T05:36:32.771Z,101019.67
2019-05-17T05:42:16.283Z,101010.84
2019-05-17T05:48:01.857Z,101015.77
2019-05-17T05:50:36.554Z,101013.83
2019-05-17T05:53:05.369Z,101016.72
2019-05-17T05:55:35.949Z,101014.48
2019-05-17T05:58:04.729Z,101009.73
2019-05-17T06:00:39.319Z,101012.72
2019-05-17T06:03:08.049Z,101008.48
2019-05-17T06:05:36.554Z,101014.54
2019-05-17T06:10:53.081Z,101012.77
2019-05-17T06:13:21.885Z,101012.72
2019-05-17T06:15:51.815Z,101012.08
2019-05-17T06:18:22.501Z,101009.63
2019-05-17T06:20:55.894Z,101006.84
2019-05-17T06:23:24.463Z,101006.63
2019-05-17T06:25:53.093Z,101008.84
2019-05-17T06:29:02.853Z,101010.86
2019-05-17T06:31:33.299Z,101011.62
2019-05-17T06:34:02.077Z,101011.27
2019-05-17T06:39:56.808Z,100997.77
2019-05-17T06:42:37.390Z,101003.34
2019-05-17T06:45:02.124Z,101002.52
2019-05-17T06:47:32.855Z,100995.33
2019-05-17T06:50:03.145Z,101001.48
2019-05-17T06:52:32.654Z,101004.77
2019-05-17T06:55:05.363Z,100996.75
2019-05-17T06:57:32.550Z,100993.24
2019-05-17T07:00:03.230Z,100987.06
2019-05-17T07:02:35.596Z,100990.05
2019-05-17T07:08:12.595Z,100989.31
2019-05-17T07:21:46.288Z,100976.52
2019-05-17T07:26:41.229Z,100964.00
2019-05-17T07:43:24.876Z,100956.81
2019-05-17T07:46:16.767Z,100964.00
2019-05-17T07:48:45.502Z,100957.98
2019-05-17T07:51:14.428Z,100953.64
2019-05-17T08:08:50.107Z,100935.97
2019-05-17T08:11:19.668Z,100928.37
2019-05-17T08:20:00.551Z,100925.78
2019-05-17T08:26:20.027Z,100920.09
2019-05-17T08:29:59.384Z,100911.77
2019-05-17T08:34:55.545Z,100897.75
2019-05-17T08:37:24.417Z,100897.45
2019-05-17T08:40:00.396Z,100890.87
2019-05-17T08:46:11.629Z,100889.69
2019-05-17T08:48:40.301Z,100885.33
2019-05-17T08:51:10.807Z,100888.05
2019-05-17T08:53:43.767Z,100887.81
2019-05-17T08:56:12.480Z,100886.93
2019-05-17T09:01:50.586Z,100889.59
2019-05-17T09:04:20.151Z,100884.37
2019-05-17T09:09:45.290Z,100885.91
2019-05-17T09:12:14.454Z,100882.84
2019-05-17T09:14:49.628Z,100882.97
2019-05-17T09:20:40.624Z,100878.28
2019-05-17T09:23:10.000Z,100872.66
2019-05-17T09:28:54.241Z,100870.19
2019-05-17T09:34:23.748Z,100856.52
2019-05-17T09:54:41.419Z,100849.91
2019-05-17T09:59:37.847Z,100839.93
2019-05-17T10:02:09.659Z,100840.86
2019-05-17T10:05:10.713Z,100836.34
2019-05-17T10:07:45.498Z,100830.58
2019-05-17T10:11:04.760Z,100837.05
2019-05-17T10:13:22.245Z,100837.55
2019-05-17T10:18:29.444Z,100839.47
2019-05-17T10:20:59.663Z,100838.03
2019-05-17T10:23:29.859Z,100839.80
2019-05-17T10:25:59.542Z,100843.71
2019-05-17T10:28:28.457Z,100837.67
2019-05-17T10:30:57.376Z,100829.63
2019-05-17T10:33:26.042Z,100826.63
2019-05-17T10:35:55.378Z,100826.11
2019-05-17T10:38:24.108Z,100826.59
2019-05-17T10:40:52.694Z,100822.67
2019-05-17T10:43:21.224Z,100819.59
2019-05-17T10:45:49.777Z,100816.94
2019-05-17T10:48:20.978Z,100817.47
2019-05-17T10:50:49.709Z,100813.03
2019-05-17T10:53:20.431Z,100812.12
2019-05-17T10:55:49.778Z,100814.27
2019-05-17T10:58:21.007Z,100818.41
2019-05-17T11:00:50.120Z,100809.28
2019-05-17T11:03:20.349Z,100812.38
2019-05-17T11:05:50.295Z,100818.45
2019-05-17T11:08:19.712Z,100814.41
2019-05-17T11:10:50.138Z,100815.41
2019-05-17T11:13:19.199Z,100818.63
2019-05-17T11:15:47.816Z,100810.41
2019-05-17T11:18:16.432Z,100813.70
2019-05-17T11:20:45.757Z,100814.36
2019-05-17T11:23:14.458Z,100823.98
2019-05-17T11:25:45.991Z,100820.92
2019-05-17T11:28:13.194Z,100817.40
2019-05-17T11:30:41.718Z,100825.13
2019-05-17T11:33:10.357Z,100818.39
2019-05-17T11:35:39.252Z,100816.50
2019-05-17T11:38:07.957Z,100815.97
2019-05-17T11:40:36.458Z,100819.72
2019-05-17T11:43:05.025Z,100816.31
2019-05-17T11:45:33.816Z,100811.59
2019-05-17T11:48:02.741Z,100811.23
2019-05-17T11:50:31.666Z,100809.59
2019-05-17T11:53:00.400Z,100806.47
2019-05-17T11:55:30.789Z,100812.71
2019-05-17T11:57:59.414Z,100809.00
2019-05-17T12:00:28.211Z,100814.30
2019-05-17T12:02:56.766Z,100811.30
2019-05-17T12:05:25.586Z,100809.89
2019-05-17T12:07:54.694Z,100811.55
2019-05-17T12:10:23.716Z,100806.77
2019-05-17T12:12:55.621Z,100809.22
2019-05-17T12:15:24.359Z,100808.02
2019-05-17T12:17:52.973Z,100804.21
2019-05-17T12:20:22.110Z,100806.47
2019-05-17T12:22:50.699Z,100806.94
2019-05-17T12:25:22.784Z,100808.62
2019-05-17T12:27:51.297Z,100809.43
2019-05-17T12:30:20.152Z,100805.77
2019-05-17T12:32:48.669Z,100807.78
2019-05-17T12:35:17.273Z,100807.52
2019-05-17T12:37:46.135Z,100808.91
2019-05-17T12:46:06.678Z,100807.32
2019-05-17T12:48:35.298Z,100812.98
2019-05-17T12:51:04.034Z,100803.14
2019-05-17T12:53:32.567Z,100805.53
2019-05-17T12:56:01.316Z,100804.79
2019-05-17T12:58:29.910Z,100797.50
2019-05-17T13:07:00.289Z,100799.84
2019-05-17T13:15:14.199Z,100803.63
2019-05-17T13:17:42.894Z,100799.31
2019-05-17T13:20:11.749Z,100796.23
2019-05-17T13:22:43.063Z,100803.70
2019-05-17T13:25:12.128Z,100802.99
2019-05-17T13:27:40.932Z,100799.34
2019-05-17T13:30:10.228Z,100799.42
2019-05-17T13:32:43.923Z,100789.06
2019-05-17T13:35:18.985Z,100789.96
2019-05-17T13:37:50.959Z,100787.80
2019-05-17T13:40:20.509Z,100785.50
2019-05-17T13:43:01.433Z,100785.58
2019-05-17T13:45:36.951Z,100788.80
2019-05-17T13:50:55.149Z,100784.09
2019-05-17T13:53:23.669Z,100782.98
2019-05-17T13:55:52.220Z,100789.03
2019-05-17T13:58:20.784Z,100780.91
2019-05-17T14:00:49.396Z,100786.25
2019-05-17T14:03:18.320Z,100790.41
2019-05-17T14:05:46.985Z,100788.88
2019-05-17T14:08:15.721Z,100791.36
2019-05-17T14:10:45.293Z,100791.69
2019-05-17T14:13:14.051Z,100794.84
2019-05-17T14:15:42.627Z,100790.89
2019-05-17T14:18:11.205Z,100790.28
2019-05-17T14:20:39.897Z,100788.86
2019-05-17T14:23:08.493Z,100792.46
2019-05-17T14:25:37.314Z,100787.73
2019-05-17T14:28:06.223Z,100791.15
2019-05-17T14:30:34.857Z,100786.17
2019-05-17T14:33:03.417Z,100779.80
2019-05-17T14:35:31.913Z,100784.03
2019-05-17T14:38:00.523Z,100781.27
2019-05-17T14:41:04.261Z,100782.12
2019-05-17T14:42:59.369Z,100782.81
2019-05-17T14:45:28.037Z,100781.29
2019-05-17T14:47:56.595Z,100776.33
2019-05-17T14:50:25.165Z,100776.42
2019-05-17T14:52:53.679Z,100776.88
2019-05-17T14:55:22.231Z,100774.72
2019-05-17T14:57:50.819Z,100775.87
2019-05-17T15:00:19.384Z,100775.69
2019-05-17T15:02:47.864Z,100766.27
2019-05-17T15:05:16.380Z,100772.55
2019-05-17T15:07:44.931Z,100774.61
2019-05-17T15:10:13.445Z,100773.27
2019-05-17T15:12:42.039Z,100770.70
2019-05-17T15:15:10.515Z,100767.57
2019-05-17T15:17:39.113Z,100766.48
2019-05-17T15:20:07.882Z,100766.41
2019-05-17T15:22:36.498Z,100762.55
2019-05-17T15:25:05.208Z,100760.30
2019-05-17T15:27:33.686Z,100759.84
2019-05-17T15:30:02.569Z,100757.09
2019-05-17T15:32:31.252Z,100755.66
2019-05-17T15:34:59.762Z,100754.98
2019-05-17T15:37:28.340Z,100748.73
2019-05-17T15:39:56.824Z,100752.89
2019-05-17T15:42:25.310Z,100749.39
2019-05-17T15:44:53.854Z,100749.98
2019-05-17T15:47:22.393Z,100751.66
2019-05-17T15:49:50.952Z,100754.61
2019-05-17T15:52:19.528Z,100753.97
2019-05-17T15:54:48.686Z,100749.99
2019-05-17T15:57:17.388Z,100751.78
2019-05-17T15:59:45.908Z,100748.87
2019-05-17T16:02:14.506Z,100751.38
2019-05-17T16:04:42.988Z,100742.09
2019-05-17T16:07:11.470Z,100745.64
2019-05-17T16:09:39.967Z,100741.84
2019-05-17T16:12:08.649Z,100741.31
2019-05-17T16:14:37.129Z,100734.21
2019-05-17T16:17:05.617Z,100738.77
2019-05-17T16:19:34.207Z,100742.69
2019-05-17T16:22:02.772Z,100736.20
2019-05-17T16:24:33.032Z,100733.70
2019-05-17T16:27:01.556Z,100732.92
2019-05-17T16:29:30.074Z,100728.64
2019-05-17T16:31:58.855Z,100731.66
2019-05-17T16:34:27.378Z,100728.97
2019-05-17T16:36:56.015Z,100728.35
2019-05-17T16:39:24.719Z,100728.67
2019-05-17T16:41:53.206Z,100728.75
2019-05-17T16:44:21.926Z,100730.84
2019-05-17T16:46:50.575Z,100731.50
2019-05-17T16:49:19.276Z,100733.69
2019-05-17T16:51:47.778Z,100729.07
2019-05-17T16:54:16.253Z,100723.58
2019-05-17T16:56:44.860Z,100717.40
2019-05-17T16:59:13.353Z,100718.83
2019-05-17T17:01:41.930Z,100722.84
2019-05-17T17:04:10.540Z,100718.08
2019-05-17T17:06:39.074Z,100719.03
2019-05-17T17:09:07.556Z,100718.28
2019-05-17T17:11:36.121Z,100719.99
2019-05-17T17:14:04.832Z,100719.85
2019-05-17T17:16:33.375Z,100724.05
2019-05-17T17:19:01.943Z,100721.39
2019-05-17T17:21:30.473Z,100722.48
2019-05-17T17:23:58.953Z,100719.54
2019-05-17T17:26:27.446Z,100723.02
2019-05-17T17:28:56.044Z,100720.11
2019-05-17T17:31:24.623Z,100720.42
2019-05-17T17:33:53.215Z,100717.33
2019-05-17T17:36:21.812Z,100717.83
2019-05-17T17:38:50.303Z,100719.34
2019-05-17T17:41:18.825Z,100716.53
2019-05-17T17:43:57.900Z,100711.65
2019-05-17T17:46:17.531Z,100713.94
2019-05-17T17:48:46.083Z,100710.50
2019-05-17T17:51:14.625Z,100707.61
2019-05-17T17:53:43.156Z,100714.95
2019-05-17T17:56:13.659Z,100715.45
2019-05-17T17:58:41.955Z,100719.36
2019-05-17T18:01:10.494Z,100711.06
2019-05-17T18:03:39.421Z,100718.22
2019-05-17T18:06:07.929Z,100714.05
2019-05-17T18:08:36.438Z,100718.53
2019-05-17T18:11:05.001Z,100711.55
2019-05-17T18:13:34.344Z,100712.13
2019-05-17T18:16:02.910Z,100711.70
2019-05-17T18:18:31.451Z,100712.75
2019-05-17T18:20:59.956Z,100716.74
2019-05-17T18:23:28.542Z,100718.37
2019-05-17T18:25:57.075Z,100714.76
2019-05-17T18:28:25.629Z,100718.66
2019-05-17T18:30:54.299Z,100715.85
2019-05-17T18:33:22.848Z,100723.47
2019-05-17T18:35:51.337Z,100727.25
2019-05-17T18:38:20.561Z,100718.28
2019-05-17T18:40:49.112Z,100725.52
2019-05-17T18:43:17.597Z,100726.00
2019-05-17T18:45:46.962Z,100728.12
2019-05-17T18:48:15.530Z,100726.67
2019-05-17T18:50:44.211Z,100733.59
2019-05-17T18:53:16.787Z,100732.28
2019-05-17T18:55:42.918Z,100731.52
2019-05-17T18:58:11.457Z,100732.95
2019-05-17T19:00:40.484Z,100733.15
2019-05-17T19:03:09.030Z,100736.44
2019-05-17T19:05:37.594Z,100731.28
2019-05-17T19:08:06.108Z,100729.82
2019-05-17T19:10:34.598Z,100733.40
2019-05-17T19:13:03.174Z,100733.97
2019-05-17T19:15:31.850Z,100729.91
2019-05-17T19:18:00.347Z,100732.92
2019-05-17T19:20:28.838Z,100733.94
2019-05-17T19:22:57.570Z,100738.24
2019-05-17T19:25:26.153Z,100735.75
2019-05-17T19:27:54.654Z,100738.24
2019-05-17T19:30:23.198Z,100739.70
2019-05-17T19:32:51.739Z,100736.74
2019-05-17T19:35:20.230Z,100740.41
2019-05-17T19:37:48.766Z,100742.63
2019-05-17T19:40:17.324Z,100739.71
2019-05-17T19:42:45.908Z,100742.30
2019-05-17T19:45:14.561Z,100746.16
2019-05-17T19:47:43.108Z,100741.16
2019-05-17T19:50:11.856Z,100744.63
2019-05-17T19:52:40.372Z,100745.67
2019-05-17T19:55:08.918Z,100746.48
2019-05-17T19:57:37.499Z,100746.00
2019-05-17T20:00:09.381Z,100745.45
2019-05-17T20:02:37.865Z,100745.38
2019-05-17T20:05:07.076Z,100748.55
2019-05-17T20:07:38.520Z,100749.40
2019-05-17T20:10:07.532Z,100743.67
2019-05-17T20:12:36.063Z,100747.44
2019-05-17T20:15:16.771Z,100744.40
2019-05-17T20:17:36.564Z,100739.12
2019-05-17T20:20:06.847Z,100743.70
2019-05-17T20:22:35.409Z,100746.14
2019-05-17T20:25:05.124Z,100746.14
2019-05-17T20:27:33.640Z,100751.47
2019-05-17T20:30:02.522Z,100751.39
2019-05-17T20:32:31.159Z,100744.84
2019-05-17T20:34:59.771Z,100741.55
2019-05-17T20:37:28.325Z,100741.77
2019-05-17T20:39:56.849Z,100740.54
2019-05-17T20:42:25.370Z,100745.87
2019-05-17T20:44:53.890Z,100741.69
2019-05-17T20:47:22.469Z,100733.16
2019-05-17T20:49:50.932Z,100735.96
2019-05-17T20:52:19.446Z,100737.80
2019-05-17T20:54:48.081Z,100739.09
2019-05-17T20:57:16.619Z,100737.75
2019-05-17T20:59:45.149Z,100736.66
2019-05-17T21:02:13.656Z,100737.11
2019-05-17T21:04:42.170Z,100732.31
2019-05-17T21:07:10.636Z,100733.01
2019-05-17T21:09:39.156Z,100732.15
2019-05-17T21:12:07.633Z,100733.69
2019-05-17T21:14:36.143Z,100734.09
2019-05-17T21:17:04.900Z,100730.47
2019-05-17T21:19:33.465Z,100729.02
2019-05-17T21:22:01.979Z,100731.41
2019-05-17T21:24:30.503Z,100727.30
2019-05-17T21:26:59.147Z,100725.98
2019-05-17T21:29:27.729Z,100725.86
2019-05-17T21:31:56.306Z,100725.04
2019-05-17T21:34:24.852Z,100725.31
2019-05-17T21:36:53.643Z,100730.25
2019-05-17T21:39:22.168Z,100724.36
2019-05-17T21:41:50.760Z,100721.77
2019-05-17T21:44:19.265Z,100722.06
2019-05-17T21:47:03.426Z,100719.13
2019-05-17T21:49:18.259Z,100721.41
2019-05-17T21:51:46.824Z,100719.95
2019-05-17T21:54:15.367Z,100716.06
2019-05-17T21:56:43.950Z,100709.84
2019-05-17T21:59:12.900Z,100713.12
2019-05-17T22:01:41.453Z,100715.80
2019-05-17T22:04:09.997Z,100720.46
2019-05-17T22:06:38.478Z,100720.42
2019-05-17T22:09:07.522Z,100729.06
2019-05-17T22:11:37.536Z,100727.84
2019-05-17T22:14:06.537Z,100724.20
2019-05-17T22:16:35.118Z,100727.68
2019-05-17T22:19:03.663Z,100720.40
2019-05-17T22:21:32.230Z,100714.25
2019-05-17T22:24:00.893Z,100715.83
2019-05-17T22:26:29.469Z,100715.78
2019-05-17T22:28:58.106Z,100721.93
2019-05-17T22:31:26.655Z,100718.84
2019-05-17T22:33:55.196Z,100726.13
2019-05-17T22:36:23.757Z,100721.70
2019-05-17T22:38:52.280Z,100715.60
2019-05-17T22:41:20.770Z,100724.49
2019-05-17T22:43:49.359Z,100718.70
2019-05-17T22:46:17.839Z,100719.75
2019-05-17T22:48:46.351Z,100719.95
2019-05-17T22:51:14.916Z,100717.91
2019-05-17T22:53:43.421Z,100718.48
2019-05-17T22:56:11.955Z,100721.08
2019-05-17T22:58:40.472Z,100719.91
2019-05-17T23:01:09.020Z,100717.64
2019-05-17T23:03:37.516Z,100720.91
2019-05-17T23:06:06.237Z,100720.85
2019-05-17T23:08:35.228Z,100717.05
2019-05-17T23:11:03.761Z,100713.84
2019-05-17T23:13:32.529Z,100711.41
2019-05-17T23:16:01.805Z,100706.59
2019-05-17T23:18:33.799Z,100703.55
2019-05-17T23:21:02.497Z,100715.45
2019-05-17T23:23:31.116Z,100712.11
2019-05-17T23:25:59.701Z,100713.38
2019-05-17T23:28:28.184Z,100710.70
2019-05-17T23:30:56.763Z,100710.86
2019-05-17T23:33:25.327Z,100713.41
2019-05-17T23:35:53.980Z,100714.38
2019-05-17T23:38:22.565Z,100713.03
2019-05-17T23:40:51.126Z,100714.01
2019-05-17T23:43:19.699Z,100711.23
2019-05-17T23:45:48.264Z,100711.52
2019-05-17T23:48:16.754Z,100705.07
2019-05-17T23:50:45.333Z,100700.16
2019-05-17T23:53:13.844Z,100704.02
2019-05-17T23:55:42.346Z,100703.37
2019-05-17T23:58:10.939Z,100710.05
